Time;durP1;ratioP1;P1;durP2;ratioP2;P2;SDS_P1;SDS_P2;PMS_P1;PMS_P2;Temp;Humidity;BMP_temperature;BMP_pressure;BME280_temperature;BME280_humidity;BME280_pressure;Samples;Min_cycle;Max_cycle;Signal;HPM_P1;HPM_P2
2022/08/03 00:01:17;;;;;;;5.20;1.45;;;;;;;;;;5000533;28;20037;-84
2022/08/03 00:03:43;;;;;;;3.08;1.48;;;;;;;;;;4984357;28;20056;-84
2022/08/03 00:06:08;;;;;;;3.45;1.10;;;;;;;;;;4999055;28;20120;-83
2022/08/03 00:08:34;;;;;;;1.98;0.95;;;;;;;;;;4984032;28;20132;-82
2022/08/03 00:10:59;;;;;;;3.10;1.70;;;;;;;;;;5000348;28;20064;-82
2022/08/03 00:13:25;;;;;;;2.63;1.50;;;;;;;;;;4984173;28;20029;-82
2022/08/03 00:15:50;;;;;;;3.38;1.92;;;;;;;;;;4983745;28;20064;-83
2022/08/03 00:18:16;;;;;;;2.85;1.27;;;;;;;;;;5016682;28;20095;-83
2022/08/03 00:20:41;;;;;;;2.65;1.40;;;;;;;;;;5016007;28;20041;-85
2022/08/03 00:23:07;;;;;;;3.42;1.15;;;;;;;;;;4999878;28;20033;-84
2022/08/03 00:25:35;;;;;;;2.38;1.13;;;;;;;;;;5000134;28;20632;-84
2022/08/03 00:28:02;;;;;;;3.65;1.20;;;;;;;;;;4983725;28;20044;-82
2022/08/03 00:30:27;;;;;;;3.17;1.73;;;;;;;;;;5000449;28;20535;-82
2022/08/03 00:32:52;;;;;;;2.95;1.05;;;;;;;;;;4999910;28;20148;-82
2022/08/03 00:35:18;;;;;;;3.03;1.33;;;;;;;;;;5015899;28;20045;-83
2022/08/03 00:37:43;;;;;;;2.75;1.05;;;;;;;;;;5000038;28;20400;-83
2022/08/03 00:40:12;;;;;;;3.95;1.17;;;;;;;;;;5016207;28;20131;-83
2022/08/03 00:42:52;;;;;;;2.45;1.17;;;;;;;;;;4983718;28;20037;-84
2022/08/03 00:45:19;;;;;;;2.72;1.10;;;;;;;;;;4983712;28;20044;-84
2022/08/03 00:47:45;;;;;;;2.45;1.23;;;;;;;;;;5013303;28;20578;-85
2022/08/03 00:50:10;;;;;;;2.83;1.02;;;;;;;;;;5016115;28;20120;-83
2022/08/03 00:52:35;;;;;;;4.22;1.38;;;;;;;;;;5019074;28;20040;-83
2022/08/03 00:55:02;;;;;;;2.70;1.20;;;;;;;;;;5018998;28;20036;-83
2022/08/03 00:57:28;;;;;;;4.10;1.50;;;;;;;;;;5015466;28;20045;-83
2022/08/03 00:59:54;;;;;;;1.88;0.90;;;;;;;;;;4983345;28;20061;-83
2022/08/03 01:02:21;;;;;;;2.60;1.27;;;;;;;;;;4999346;28;20376;-83
2022/08/03 01:04:47;;;;;;;1.90;1.13;;;;;;;;;;5015166;28;20049;-83
2022/08/03 01:07:20;;;;;;;2.58;1.25;;;;;;;;;;4998892;28;20213;-83
2022/08/03 01:09:59;;;;;;;3.10;1.17;;;;;;;;;;4983727;28;20043;-83
2022/08/03 01:12:31;;;;;;;2.92;1.25;;;;;;;;;;4983695;28;20175;-82
2022/08/03 01:15:14;;;;;;;2.55;1.23;;;;;;;;;;5016301;28;20033;-83
2022/08/03 01:17:50;;;;;;;3.08;1.20;;;;;;;;;;4999216;28;20040;-83
2022/08/03 01:20:17;;;;;;;2.65;1.40;;;;;;;;;;4982471;28;20404;-83
2022/08/03 01:23:34;;;;;;;3.78;1.52;;;;;;;;;;5015163;28;20033;-83
2022/08/03 01:26:22;;;;;;;2.10;0.98;;;;;;;;;;5006628;28;20096;-83
2022/08/03 01:29:25;;;;;;;2.47;1.00;;;;;;;;;;5031619;28;20099;-83
2022/08/03 01:31:58;;;;;;;2.33;1.45;;;;;;;;;;5015199;28;20029;-83
2022/08/03 01:34:27;;;;;;;2.47;1.33;;;;;;;;;;4982485;28;20038;-83
2022/08/03 01:36:52;;;;;;;2.53;1.40;;;;;;;;;;4999062;28;20033;-83
2022/08/03 01:39:18;;;;;;;2.85;1.35;;;;;;;;;;5015058;28;20137;-83
2022/08/03 01:41:48;;;;;;;4.32;1.38;;;;;;;;;;4998525;28;20518;-82
2022/08/03 01:44:13;;;;;;;3.60;1.40;;;;;;;;;;5015253;28;20041;-83
2022/08/03 01:46:39;;;;;;;2.85;1.38;;;;;;;;;;5026835;28;20579;-83
2022/08/03 01:49:06;;;;;;;3.67;1.50;;;;;;;;;;5021076;28;20024;-83
2022/08/03 01:51:32;;;;;;;2.85;1.38;;;;;;;;;;5020871;28;20040;-83
2022/08/03 01:53:57;;;;;;;3.72;1.80;;;;;;;;;;5018054;28;20141;-83
2022/08/03 01:56:23;;;;;;;2.78;1.55;;;;;;;;;;5014335;28;20043;-83
2022/08/03 01:58:49;;;;;;;2.90;1.35;;;;;;;;;;4982462;28;20454;-83
2022/08/03 02:01:14;;;;;;;2.55;1.70;;;;;;;;;;4998362;28;20064;-83
2022/08/03 02:03:41;;;;;;;2.30;1.67;;;;;;;;;;4981958;28;20407;-83
2022/08/03 02:06:06;;;;;;;2.90;1.52;;;;;;;;;;4998467;28;20045;-83
2022/08/03 02:08:32;;;;;;;2.92;1.40;;;;;;;;;;4998306;28;20091;-84
2022/08/03 02:10:58;;;;;;;3.40;1.40;;;;;;;;;;4997945;28;20107;-84
2022/08/03 02:13:23;;;;;;;2.88;1.58;;;;;;;;;;5014502;28;20033;-83
2022/08/03 02:15:49;;;;;;;3.70;2.17;;;;;;;;;;4997950;28;20083;-83
2022/08/03 02:18:14;;;;;;;3.22;1.98;;;;;;;;;;4997636;28;20419;-83
2022/08/03 02:20:40;;;;;;;3.05;1.50;;;;;;;;;;4997784;28;20037;-84
2022/08/03 02:23:06;;;;;;;2.92;1.45;;;;;;;;;;4997868;28;20029;-84
2022/08/03 02:25:33;;;;;;;4.57;1.50;;;;;;;;;;4997910;28;20044;-83
2022/08/03 02:28:01;;;;;;;3.55;1.52;;;;;;;;;;4997482;28;20140;-84
2022/08/03 02:30:32;;;;;;;4.80;2.00;;;;;;;;;;4981503;28;20072;-83
2022/08/03 02:32:57;;;;;;;3.30;1.52;;;;;;;;;;4998064;28;20080;-83
2022/08/03 02:35:24;;;;;;;4.25;1.92;;;;;;;;;;5014082;28;20069;-83
2022/08/03 02:37:51;;;;;;;3.78;1.70;;;;;;;;;;5014167;28;20034;-83
2022/08/03 02:40:17;;;;;;;4.00;1.95;;;;;;;;;;4997863;28;20033;-83
2022/08/03 02:42:43;;;;;;;3.53;1.70;;;;;;;;;;4981389;28;20041;-83
2022/08/03 02:45:12;;;;;;;5.03;1.80;;;;;;;;;;4981742;28;20042;-83
2022/08/03 02:47:38;;;;;;;3.47;1.67;;;;;;;;;;5032528;28;20043;-83
2022/08/03 02:50:04;;;;;;;3.50;1.50;;;;;;;;;;5032100;28;20049;-83
2022/08/03 02:52:30;;;;;;;4.15;1.77;;;;;;;;;;5017246;28;20029;-83
2022/08/03 02:54:57;;;;;;;4.40;2.00;;;;;;;;;;5017148;28;20053;-83
2022/08/03 02:57:24;;;;;;;3.72;1.60;;;;;;;;;;5013791;28;20045;-83
2022/08/03 02:59:50;;;;;;;2.78;1.52;;;;;;;;;;4997700;28;20151;-83
2022/08/03 03:02:16;;;;;;;5.38;1.80;;;;;;;;;;4997507;28;20087;-83
2022/08/03 03:04:42;;;;;;;2.42;1.52;;;;;;;;;;5013599;28;20045;-83
2022/08/03 03:07:07;;;;;;;2.60;1.45;;;;;;;;;;4997408;28;20098;-84
2022/08/03 03:09:34;;;;;;;3.70;1.52;;;;;;;;;;4997303;28;20046;-83
2022/08/03 03:11:59;;;;;;;3.33;1.58;;;;;;;;;;4997625;28;20037;-83
2022/08/03 03:14:25;;;;;;;3.47;2.17;;;;;;;;;;4997361;28;20067;-83
2022/08/03 03:16:50;;;;;;;3.03;1.95;;;;;;;;;;5013681;28;20064;-83
2022/08/03 03:19:16;;;;;;;3.60;1.92;;;;;;;;;;4996988;28;20053;-83
2022/08/03 03:21:42;;;;;;;3.00;1.92;;;;;;;;;;4997190;28;20404;-83
2022/08/03 03:24:08;;;;;;;2.75;1.63;;;;;;;;;;4997558;28;20037;-84
2022/08/03 03:26:34;;;;;;;4.28;1.63;;;;;;;;;;4997206;28;20056;-84
2022/08/03 03:29:00;;;;;;;5.10;2.08;;;;;;;;;;4997390;28;20029;-83
2022/08/03 03:31:26;;;;;;;3.58;1.58;;;;;;;;;;4997334;28;20037;-83
2022/08/03 03:33:51;;;;;;;3.13;1.85;;;;;;;;;;4997404;28;20040;-83
2022/08/03 03:36:17;;;;;;;3.67;1.85;;;;;;;;;;4997038;28;20026;-84
2022/08/03 03:38:44;;;;;;;4.38;1.58;;;;;;;;;;4997289;28;20470;-83
2022/08/03 03:41:09;;;;;;;3.05;1.98;;;;;;;;;;5000250;28;20128;-83
2022/08/03 03:43:34;;;;;;;2.72;1.40;;;;;;;;;;5000911;28;20403;-83
2022/08/03 03:46:00;;;;;;;4.45;1.60;;;;;;;;;;5001303;28;20168;-83
2022/08/03 03:48:25;;;;;;;3.22;1.77;;;;;;;;;;5004077;28;20051;-83
2022/08/03 03:50:52;;;;;;;3.85;1.70;;;;;;;;;;5036436;28;20036;-83
2022/08/03 03:53:17;;;;;;;4.75;2.25;;;;;;;;;;5020484;28;20111;-83
2022/08/03 03:55:43;;;;;;;2.78;1.60;;;;;;;;;;5003986;28;20033;-83
2022/08/03 03:58:08;;;;;;;3.30;1.70;;;;;;;;;;5016872;28;20067;-83
2022/08/03 04:00:34;;;;;;;3.60;1.80;;;;;;;;;;5000427;28;20101;-83
2022/08/03 04:02:59;;;;;;;3.33;1.63;;;;;;;;;;5016713;28;20041;-83
2022/08/03 04:11:23;;;;;;;4.05;1.23;;;;;;;;;;5019153;28;20037;-84
2022/08/03 04:14:07;;;;;;;5.20;1.55;;;;;;;;;;5000200;28;20048;-83
2022/08/03 04:16:38;;;;;;;3.33;1.70;;;;;;;;;;5002301;28;20041;-83
2022/08/03 04:19:05;;;;;;;3.55;1.52;;;;;;;;;;5000193;28;20084;-83
2022/08/03 04:21:30;;;;;;;3.75;1.63;;;;;;;;;;5016299;28;20048;-83
2022/08/03 04:23:59;;;;;;;3.30;1.35;;;;;;;;;;5016324;28;20056;-83
2022/08/03 04:26:25;;;;;;;2.90;1.40;;;;;;;;;;5000304;28;20045;-83
2022/08/03 04:28:50;;;;;;;3.72;1.65;;;;;;;;;;4999744;28;20042;-83
2022/08/03 04:31:16;;;;;;;1.77;1.08;;;;;;;;;;4999766;28;20029;-83
2022/08/03 04:33:43;;;;;;;2.78;1.50;;;;;;;;;;5000444;28;20042;-83
2022/08/03 04:36:11;;;;;;;3.17;1.40;;;;;;;;;;5016036;28;20033;-83
2022/08/03 04:38:39;;;;;;;3.00;0.90;;;;;;;;;;5000243;28;20041;-83
2022/08/03 04:41:05;;;;;;;2.63;1.27;;;;;;;;;;5000104;28;20124;-83
2022/08/03 04:43:31;;;;;;;2.00;1.00;;;;;;;;;;4999417;28;20056;-83
2022/08/03 04:45:57;;;;;;;2.13;1.20;;;;;;;;;;5016136;28;20029;-83
2022/08/03 04:48:23;;;;;;;2.45;1.25;;;;;;;;;;5019171;28;20047;-83
2022/08/03 04:50:48;;;;;;;1.98;1.20;;;;;;;;;;5014884;28;20045;-82
2022/08/03 04:53:13;;;;;;;2.83;1.42;;;;;;;;;;5015670;28;20041;-83
2022/08/03 04:55:39;;;;;;;2.25;1.20;;;;;;;;;;4999724;28;20033;-82
2022/08/03 04:58:05;;;;;;;3.38;1.48;;;;;;;;;;5017533;28;20043;-83
2022/08/03 05:00:30;;;;;;;2.97;1.13;;;;;;;;;;5002261;28;20083;-82
2022/08/03 05:02:56;;;;;;;3.35;1.20;;;;;;;;;;5002502;28;20036;-83
2022/08/03 05:05:21;;;;;;;1.63;0.90;;;;;;;;;;5018573;28;20029;-83
2022/08/03 05:07:47;;;;;;;3.30;1.48;;;;;;;;;;5002664;28;20493;-82
2022/08/03 05:10:12;;;;;;;2.33;1.20;;;;;;;;;;5018381;28;20040;-83
2022/08/03 05:12:38;;;;;;;3.30;1.13;;;;;;;;;;5017745;28;20115;-83
2022/08/03 05:15:04;;;;;;;3.85;1.55;;;;;;;;;;5018879;28;20407;-82
2022/08/03 05:17:32;;;;;;;3.15;1.40;;;;;;;;;;5002482;28;20041;-82
2022/08/03 05:19:58;;;;;;;5.45;1.20;;;;;;;;;;5018563;28;20091;-83
2022/08/03 05:22:23;;;;;;;2.75;1.33;;;;;;;;;;5002587;28;20037;-82
2022/08/03 05:24:49;;;;;;;2.35;0.90;;;;;;;;;;5018558;28;20132;-84
2022/08/03 05:27:20;;;;;;;3.30;1.30;;;;;;;;;;5018023;28;20410;-82
2022/08/03 05:29:49;;;;;;;3.13;1.20;;;;;;;;;;5019050;28;20033;-82
2022/08/03 05:32:15;;;;;;;2.42;0.82;;;;;;;;;;5019108;28;20029;-83
2022/08/03 05:34:40;;;;;;;1.60;0.80;;;;;;;;;;5018216;28;20033;-82
2022/08/03 05:37:06;;;;;;;3.03;1.00;;;;;;;;;;5002218;28;20032;-82
2022/08/03 05:39:33;;;;;;;2.22;1.33;;;;;;;;;;5018155;28;20044;-82
2022/08/03 05:41:59;;;;;;;1.75;0.90;;;;;;;;;;5018284;28;20068;-83
2022/08/03 05:44:24;;;;;;;3.60;1.17;;;;;;;;;;5000452;28;20132;-82
2022/08/03 05:46:50;;;;;;;1.83;1.08;;;;;;;;;;5010139;28;20025;-82
2022/08/03 05:49:16;;;;;;;1.95;1.02;;;;;;;;;;5016208;28;20519;-82
2022/08/03 05:51:41;;;;;;;1.77;0.90;;;;;;;;;;4992409;28;20033;-82
2022/08/03 05:54:07;;;;;;;1.98;1.00;;;;;;;;;;5008831;28;20040;-83
2022/08/03 05:56:32;;;;;;;2.35;1.00;;;;;;;;;;5005668;28;20462;-82
2022/08/03 05:58:57;;;;;;;1.70;0.90;;;;;;;;;;5015113;28;20032;-83
2022/08/03 06:01:23;;;;;;;1.92;1.00;;;;;;;;;;5011379;28;20419;-83
2022/08/03 06:03:48;;;;;;;2.15;1.10;;;;;;;;;;4996242;28;20454;-83
2022/08/03 06:06:14;;;;;;;2.55;1.33;;;;;;;;;;5015213;28;20082;-82
2022/08/03 06:08:40;;;;;;;2.00;1.10;;;;;;;;;;4992485;28;20415;-79
2022/08/03 06:11:05;;;;;;;2.15;1.15;;;;;;;;;;5010999;28;20061;-79
2022/08/03 06:13:31;;;;;;;3.03;1.40;;;;;;;;;;5023708;28;20404;-80
2022/08/03 06:15:56;;;;;;;2.30;1.15;;;;;;;;;;5002061;28;20041;-83
2022/08/03 06:18:23;;;;;;;3.03;1.42;;;;;;;;;;5014598;28;20037;-83
2022/08/03 06:20:49;;;;;;;4.57;2.00;;;;;;;;;;4981800;28;20033;-83
2022/08/03 06:23:15;;;;;;;2.67;1.27;;;;;;;;;;4981738;28;20033;-83
2022/08/03 06:25:41;;;;;;;4.18;1.73;;;;;;;;;;4997820;28;20029;-82
2022/08/03 06:28:07;;;;;;;5.53;1.42;;;;;;;;;;5014455;28;20077;-83
2022/08/03 06:30:32;;;;;;;4.50;1.60;;;;;;;;;;4997952;28;20565;-83
2022/08/03 06:32:57;;;;;;;2.45;1.00;;;;;;;;;;4997616;28;20103;-82
2022/08/03 06:35:23;;;;;;;2.95;1.63;;;;;;;;;;4997498;28;20045;-83
2022/08/03 06:37:49;;;;;;;4.50;1.30;;;;;;;;;;4997635;28;20411;-82
2022/08/03 06:40:21;;;;;;;2.67;1.20;;;;;;;;;;4997682;28;20108;-83
2022/08/03 06:42:51;;;;;;;3.88;1.50;;;;;;;;;;5014512;28;20092;-83
2022/08/03 06:45:17;;;;;;;4.18;1.63;;;;;;;;;;4996995;28;20124;-83
2022/08/03 06:47:42;;;;;;;2.92;1.70;;;;;;;;;;5025419;28;20403;-84
2022/08/03 06:50:08;;;;;;;4.85;1.67;;;;;;;;;;4991996;28;20114;-84
2022/08/03 06:52:34;;;;;;;6.53;2.50;;;;;;;;;;4992576;28;20040;-83
2022/08/03 06:54:59;;;;;;;6.32;2.60;;;;;;;;;;5008229;28;20045;-83
2022/08/03 06:57:25;;;;;;;8.27;2.58;;;;;;;;;;4999737;28;20060;-83
2022/08/03 06:59:50;;;;;;;4.13;1.90;;;;;;;;;;4996451;28;20029;-82
2022/08/03 07:02:17;;;;;;;5.32;1.80;;;;;;;;;;5008904;28;20061;-84
2022/08/03 07:04:42;;;;;;;4.28;1.98;;;;;;;;;;4999974;28;20025;-82
2022/08/03 07:07:08;;;;;;;4.53;1.65;;;;;;;;;;5005924;28;20030;-83
2022/08/03 07:09:33;;;;;;;4.53;1.85;;;;;;;;;;5010848;28;20034;-83
2022/08/03 07:12:01;;;;;;;7.50;1.73;;;;;;;;;;4997356;28;20084;-82
2022/08/03 07:14:26;;;;;;;5.22;1.73;;;;;;;;;;5014550;28;20083;-83
2022/08/03 07:16:52;;;;;;;2.97;1.30;;;;;;;;;;5001163;28;20037;-83
2022/08/03 07:19:17;;;;;;;5.55;1.40;;;;;;;;;;5000934;28;20121;-84
2022/08/03 07:21:44;;;;;;;5.05;1.30;;;;;;;;;;5001277;28;20048;-84
2022/08/03 07:24:10;;;;;;;4.63;1.33;;;;;;;;;;5017450;28;20029;-83
2022/08/03 07:26:35;;;;;;;12.15;2.25;;;;;;;;;;4984610;28;20099;-83
2022/08/03 07:29:01;;;;;;;4.05;1.60;;;;;;;;;;5001041;28;20446;-83
2022/08/03 07:31:27;;;;;;;3.20;1.38;;;;;;;;;;5000872;28;20049;-84
2022/08/03 07:33:53;;;;;;;4.90;1.85;;;;;;;;;;5000941;28;20030;-83
2022/08/03 07:36:18;;;;;;;6.45;1.83;;;;;;;;;;5000520;28;20041;-83
2022/08/03 07:38:44;;;;;;;3.28;1.60;;;;;;;;;;5000857;28;20398;-83
2022/08/03 07:41:09;;;;;;;5.78;1.70;;;;;;;;;;4984543;28;20030;-83
2022/08/03 07:43:34;;;;;;;2.78;1.10;;;;;;;;;;5000750;28;20042;-83
2022/08/03 07:46:00;;;;;;;2.38;0.80;;;;;;;;;;5001241;28;20419;-83
2022/08/03 07:48:25;;;;;;;4.55;1.20;;;;;;;;;;5004238;28;20042;-83
2022/08/03 07:50:51;;;;;;;3.78;1.60;;;;;;;;;;5016731;28;20037;-82
2022/08/03 07:53:17;;;;;;;4.80;0.95;;;;;;;;;;5008077;28;20045;-83
2022/08/03 07:55:42;;;;;;;3.92;1.13;;;;;;;;;;4989962;28;20120;-84
2022/08/03 07:58:11;;;;;;;3.38;1.60;;;;;;;;;;5003371;28;20037;-83
2022/08/03 08:00:36;;;;;;;3.47;1.20;;;;;;;;;;5028392;28;20056;-83
2022/08/03 08:03:12;;;;;;;3.40;1.20;;;;;;;;;;5027517;28;20025;-83
2022/08/03 08:05:37;;;;;;;5.70;0.90;;;;;;;;;;5001321;28;20030;-82
2022/08/03 08:08:07;;;;;;;4.13;0.73;;;;;;;;;;4986311;28;20033;-83
2022/08/03 08:10:32;;;;;;;2.75;1.27;;;;;;;;;;5017844;28;20037;-82
2022/08/03 08:12:58;;;;;;;3.92;1.23;;;;;;;;;;5003500;28;20025;-83
2022/08/03 08:15:23;;;;;;;2.35;0.95;;;;;;;;;;5002965;28;20123;-84
2022/08/03 08:17:51;;;;;;;2.47;0.90;;;;;;;;;;4984116;28;20037;-83
2022/08/03 08:20:17;;;;;;;2.53;1.10;;;;;;;;;;5015870;28;20042;-84
2022/08/03 08:22:43;;;;;;;2.53;1.08;;;;;;;;;;5000208;28;20033;-84
2022/08/03 08:25:09;;;;;;;3.15;1.15;;;;;;;;;;5005684;28;20049;-82
2022/08/03 08:27:41;;;;;;;2.55;1.05;;;;;;;;;;5003057;28;20041;-83
2022/08/03 08:30:06;;;;;;;;;;;;;;;;;;5020292;28;20037;-83
2022/08/03 08:32:31;;;;;;;2.75;0.80;;;;;;;;;;5019685;28;19919;-82
2022/08/03 08:34:57;;;;;;;2.80;1.27;;;;;;;;;;5018999;28;20041;-84
2022/08/03 08:37:22;;;;;;;3.28;1.00;;;;;;;;;;5003010;28;20416;-83
2022/08/03 08:39:48;;;;;;;2.13;1.23;;;;;;;;;;5019368;28;20044;-83
2022/08/03 08:42:14;;;;;;;7.55;4.32;;;;;;;;;;5019457;28;20415;-83
2022/08/03 08:44:39;;;;;;;4.70;2.72;;;;;;;;;;5003100;28;20052;-84
2022/08/03 08:47:05;;;;;;;5.38;3.28;;;;;;;;;;5015785;28;20484;-83
2022/08/03 08:49:31;;;;;;;7.57;4.22;;;;;;;;;;4998941;28;20122;-83
2022/08/03 08:51:58;;;;;;;7.30;4.85;;;;;;;;;;5002747;28;20029;-83
2022/08/03 08:54:23;;;;;;;4.93;3.00;;;;;;;;;;5003009;28;20036;-83
2022/08/03 08:56:52;;;;;;;6.78;2.88;;;;;;;;;;4999427;28;20050;-82
2022/08/03 08:59:17;;;;;;;3.38;1.60;;;;;;;;;;4999599;28;20025;-83
2022/08/03 09:01:43;;;;;;;4.25;1.30;;;;;;;;;;4999444;28;20041;-83
2022/08/03 09:04:09;;;;;;;3.08;0.90;;;;;;;;;;5015246;28;20037;-82
2022/08/03 09:06:34;;;;;;;2.38;1.30;;;;;;;;;;4999064;28;20445;-82
2022/08/03 09:09:00;;;;;;;8.02;1.88;;;;;;;;;;4999185;28;20034;-83
2022/08/03 09:11:25;;;;;;;3.03;0.88;;;;;;;;;;4999235;28;20487;-82
2022/08/03 09:13:52;;;;;;;4.25;0.70;;;;;;;;;;4999193;28;20037;-83
2022/08/03 09:16:19;;;;;;;2.25;0.68;;;;;;;;;;4999186;28;20041;-83
2022/08/03 09:18:49;;;;;;;2.55;1.00;;;;;;;;;;4982458;28;20048;-83
2022/08/03 09:21:19;;;;;;;4.72;0.93;;;;;;;;;;4982830;28;20034;-82
2022/08/03 09:23:50;;;;;;;3.20;0.80;;;;;;;;;;5015806;28;20560;-83
2022/08/03 09:26:19;;;;;;;1.88;0.50;;;;;;;;;;4982930;28;20124;-83
2022/08/03 09:28:45;;;;;;;3.13;0.82;;;;;;;;;;4982813;28;20057;-83
2022/08/03 09:31:10;;;;;;;3.13;1.00;;;;;;;;;;4998718;28;20072;-83
2022/08/03 09:33:48;;;;;;;4.50;0.77;;;;;;;;;;5014633;28;20450;-83
2022/08/03 09:36:33;;;;;;;4.47;0.93;;;;;;;;;;4999223;28;20091;-82
2022/08/03 09:39:09;;;;;;;2.75;0.70;;;;;;;;;;4998619;28;20029;-83
2022/08/03 09:41:35;;;;;;;2.03;0.70;;;;;;;;;;4983111;28;20488;-83
2022/08/03 09:44:00;;;;;;;3.08;1.10;;;;;;;;;;4982133;28;20108;-82
2022/08/03 09:46:30;;;;;;;1.52;0.60;;;;;;;;;;5007268;28;20054;-82
2022/08/03 09:49:08;;;;;;;1.58;0.43;;;;;;;;;;5038001;28;20086;-82
2022/08/03 09:51:33;;;;;;;2.63;1.00;;;;;;;;;;5020823;28;20037;-83
2022/08/03 09:54:02;;;;;;;3.58;1.17;;;;;;;;;;5002009;28;20029;-83
2022/08/03 09:56:41;;;;;;;3.67;1.02;;;;;;;;;;5015467;28;20057;-83
2022/08/03 09:59:09;;;;;;;2.58;0.73;;;;;;;;;;4982479;28;20037;-84
2022/08/03 10:01:35;;;;;;;5.18;0.95;;;;;;;;;;4982069;28;20392;-84
2022/08/03 10:04:00;;;;;;;4.45;0.77;;;;;;;;;;4998581;28;20040;-84
2022/08/03 10:06:26;;;;;;;4.55;0.85;;;;;;;;;;4997790;28;20515;-84
2022/08/03 10:09:15;;;;;;;2.60;0.65;;;;;;;;;;5025085;28;20051;-83
2022/08/03 10:11:43;;;;;;;1.60;0.68;;;;;;;;;;5025640;28;20033;-84
2022/08/03 10:14:17;;;;;;;2.17;0.85;;;;;;;;;;5000257;28;20040;-84
2022/08/03 10:16:43;;;;;;;3.83;0.93;;;;;;;;;;4999159;28;20116;-84
2022/08/03 10:19:09;;;;;;;2.97;0.68;;;;;;;;;;5016877;28;20120;-84
2022/08/03 10:21:40;;;;;;;2.75;0.80;;;;;;;;;;5001008;28;20112;-84
2022/08/03 10:24:07;;;;;;;5.43;0.90;;;;;;;;;;5001967;28;20036;-85
2022/08/03 10:26:33;;;;;;;4.82;1.98;;;;;;;;;;5017936;28;20075;-85
2022/08/03 10:29:07;;;;;;;5.20;2.10;;;;;;;;;;5018926;28;20063;-86
2022/08/03 10:31:35;;;;;;;8.30;3.17;;;;;;;;;;5018439;28;20040;-85
2022/08/03 10:34:01;;;;;;;4.45;2.53;;;;;;;;;;5018035;28;20037;-85
2022/08/03 10:36:29;;;;;;;5.22;1.90;;;;;;;;;;5001221;28;20029;-85
2022/08/03 10:38:55;;;;;;;3.30;1.33;;;;;;;;;;5001602;28;20033;-84
2022/08/03 10:41:24;;;;;;;6.05;1.45;;;;;;;;;;5001200;28;20052;-84
2022/08/03 10:43:57;;;;;;;2.70;1.00;;;;;;;;;;5017961;28;20122;-85
2022/08/03 10:46:23;;;;;;;2.60;1.00;;;;;;;;;;4998077;28;20029;-85
2022/08/03 10:48:52;;;;;;;1.95;1.00;;;;;;;;;;5013921;28;20053;-85
2022/08/03 10:51:18;;;;;;;2.50;0.63;;;;;;;;;;5014234;28;20073;-85
2022/08/03 10:53:44;;;;;;;2.78;0.90;;;;;;;;;;5015434;28;20362;-86
2022/08/03 10:59:17;;;;;;;1.50;0.70;;;;;;;;;;5051758;28;20124;-85
2022/08/03 11:01:50;;;;;;;2.63;0.60;;;;;;;;;;5017544;28;20093;-85
2022/08/03 11:04:20;;;;;;;3.30;0.70;;;;;;;;;;5001156;28;20032;-85
2022/08/03 11:06:47;;;;;;;3.50;0.77;;;;;;;;;;5001528;28;20025;-86
2022/08/03 11:09:15;;;;;;;2.30;0.70;;;;;;;;;;4999795;28;20030;-86
2022/08/03 11:11:46;;;;;;;1.92;0.70;;;;;;;;;;5001906;28;20029;-86
2022/08/03 11:14:19;;;;;;;4.30;0.60;;;;;;;;;;5001845;28;20029;-86
2022/08/03 11:16:48;;;;;;;1.55;0.47;;;;;;;;;;5002080;28;20033;-85
2022/08/03 11:19:15;;;;;;;2.85;0.80;;;;;;;;;;5001456;28;20048;-86
2022/08/03 11:21:59;;;;;;;5.25;1.30;;;;;;;;;;5001091;28;20029;-84
2022/08/03 11:24:38;;;;;;;3.90;1.02;;;;;;;;;;5017165;28;20053;-85
2022/08/03 11:27:26;;;;;;;1.65;0.85;;;;;;;;;;5025968;28;20107;-85
2022/08/03 11:30:01;;;;;;;1.90;0.70;;;;;;;;;;5013748;28;20126;-85
2022/08/03 11:32:57;;;;;;;3.17;0.77;;;;;;;;;;5014124;28;20041;-85
2022/08/03 11:35:27;;;;;;;3.22;0.93;;;;;;;;;;4996390;28;20048;-85
2022/08/03 11:37:55;;;;;;;5.90;1.30;;;;;;;;;;4997944;28;20034;-84
2022/08/03 11:40:38;;;;;;;2.83;0.32;;;;;;;;;;5013739;28;20038;-84
2022/08/03 11:43:09;;;;;;;4.43;1.20;;;;;;;;;;4996793;28;20124;-84
2022/08/03 11:45:35;;;;;;;5.97;1.20;;;;;;;;;;4996966;28;20500;-84
2022/08/03 11:48:13;;;;;;;5.45;0.73;;;;;;;;;;5031629;28;20055;-85
2022/08/03 11:50:44;;;;;;;3.67;0.70;;;;;;;;;;5027423;28;20071;-84
2022/08/03 11:53:12;;;;;;;6.90;0.98;;;;;;;;;;5002297;28;20116;-87
2022/08/03 11:55:40;;;;;;;4.78;0.95;;;;;;;;;;5001117;28;20029;-87
2022/08/03 11:58:06;;;;;;;6.97;1.10;;;;;;;;;;5001047;28;20060;-86
2022/08/03 12:00:31;;;;;;;6.70;1.20;;;;;;;;;;5016547;28;20033;-86
2022/08/03 12:03:11;;;;;;;5.72;1.27;;;;;;;;;;5020536;28;20037;-86
2022/08/03 12:05:41;;;;;;;6.50;1.00;;;;;;;;;;5037300;28;20535;-86
2022/08/03 12:08:07;;;;;;;4.10;0.90;;;;;;;;;;5021096;28;20091;-86
2022/08/03 12:10:33;;;;;;;5.18;1.00;;;;;;;;;;5004022;28;20562;-86
2022/08/03 12:12:59;;;;;;;4.20;0.85;;;;;;;;;;5020357;28;20107;-86
2022/08/03 12:15:28;;;;;;;3.65;0.90;;;;;;;;;;5020707;28;20502;-87
2022/08/03 12:17:54;;;;;;;4.40;0.70;;;;;;;;;;5020275;28;20041;-86
2022/08/03 12:20:24;;;;;;;2.17;0.65;;;;;;;;;;5020090;28;20041;-87
2022/08/03 12:22:50;;;;;;;2.53;0.70;;;;;;;;;;5004098;28;20036;-85
2022/08/03 12:25:24;;;;;;;3.42;0.60;;;;;;;;;;5020217;28;20037;-86
2022/08/03 12:27:50;;;;;;;2.15;0.80;;;;;;;;;;5019820;28;20124;-86
2022/08/03 12:30:16;;;;;;;2.22;0.60;;;;;;;;;;5003922;28;20052;-87
2022/08/03 12:32:42;;;;;;;2.33;0.60;;;;;;;;;;5004011;28;20033;-87
2022/08/03 12:35:07;;;;;;;1.88;0.52;;;;;;;;;;5004053;28;20037;-87
2022/08/03 12:37:33;;;;;;;2.42;0.70;;;;;;;;;;5004026;28;20060;-87
2022/08/03 12:40:00;;;;;;;2.30;0.73;;;;;;;;;;5019964;28;20041;-87
2022/08/03 12:42:30;;;;;;;1.55;0.50;;;;;;;;;;5004301;28;20119;-87
2022/08/03 12:44:55;;;;;;;3.40;1.23;;;;;;;;;;5003774;28;20052;-87
2022/08/03 12:47:20;;;;;;;0.90;0.40;;;;;;;;;;5031353;28;20033;-87
2022/08/03 12:49:50;;;;;;;1.65;0.50;;;;;;;;;;5022810;28;20041;-87
2022/08/03 12:52:16;;;;;;;4.90;1.02;;;;;;;;;;5040153;28;20032;-87
2022/08/03 12:54:42;;;;;;;3.08;0.57;;;;;;;;;;5023314;28;20486;-86
2022/08/03 12:57:09;;;;;;;2.35;0.40;;;;;;;;;;5008968;28;20188;-87
2022/08/03 12:59:44;;;;;;;2.63;0.70;;;;;;;;;;5016288;28;20038;-87
2022/08/03 13:02:16;;;;;;;2.08;0.52;;;;;;;;;;5016610;28;20403;-87
2022/08/03 13:04:41;;;;;;;1.25;0.40;;;;;;;;;;5000051;28;20069;-86
2022/08/03 13:07:07;;;;;;;2.47;0.50;;;;;;;;;;5016289;28;20509;-87
2022/08/03 13:09:51;;;;;;;2.53;0.55;;;;;;;;;;5016329;28;20041;-86
2022/08/03 13:12:27;;;;;;;3.30;0.50;;;;;;;;;;5015524;28;20040;-86
2022/08/03 13:14:57;;;;;;;5.88;0.95;;;;;;;;;;4999715;28;20044;-87
2022/08/03 13:17:22;;;;;;;0.95;0.35;;;;;;;;;;4999635;28;20033;-87
2022/08/03 13:19:48;;;;;;;1.60;0.57;;;;;;;;;;5015678;28;20044;-86
2022/08/03 13:22:14;;;;;;;2.13;0.82;;;;;;;;;;5015864;28;20069;-86
2022/08/03 13:24:40;;;;;;;1.65;0.50;;;;;;;;;;4999147;28;20056;-86
2022/08/03 13:27:06;;;;;;;2.15;0.68;;;;;;;;;;5015405;28;20042;-86
2022/08/03 13:29:33;;;;;;;1.40;0.40;;;;;;;;;;5015784;28;20053;-86
2022/08/03 13:32:00;;;;;;;1.92;0.50;;;;;;;;;;4999512;28;20043;-86
2022/08/03 13:34:25;;;;;;;2.90;0.47;;;;;;;;;;5015759;28;20040;-85
2022/08/03 13:36:51;;;;;;;1.80;0.55;;;;;;;;;;5015175;28;20034;-86
2022/08/03 13:39:18;;;;;;;1.10;0.35;;;;;;;;;;5014957;28;20408;-86
2022/08/03 13:41:43;;;;;;;1.60;0.50;;;;;;;;;;4999346;28;20504;-87
2022/08/03 13:44:09;;;;;;;0.68;0.40;;;;;;;;;;5015293;28;20045;-86
2022/08/03 13:46:34;;;;;;;1.45;0.50;;;;;;;;;;5021047;28;20036;-86
2022/08/03 13:49:00;;;;;;;1.77;0.43;;;;;;;;;;5034634;28;20036;-86
2022/08/03 13:51:25;;;;;;;2.63;0.40;;;;;;;;;;5015233;28;20037;-85
2022/08/03 13:53:51;;;;;;;1.88;0.70;;;;;;;;;;4998835;28;20034;-86
2022/08/03 13:56:16;;;;;;;1.20;0.45;;;;;;;;;;4998432;28;20056;-86
2022/08/03 13:58:42;;;;;;;2.13;0.50;;;;;;;;;;4998533;28;20045;-87
2022/08/03 14:01:07;;;;;;;1.80;0.40;;;;;;;;;;4981791;28;20083;-87
2022/08/03 14:03:33;;;;;;;2.13;0.50;;;;;;;;;;4982359;28;20095;-86
2022/08/03 14:05:58;;;;;;;0.98;0.30;;;;;;;;;;4982505;28;20124;-87
2022/08/03 14:08:24;;;;;;;0.85;0.35;;;;;;;;;;5014362;28;20048;-86
2022/08/03 14:10:49;;;;;;;2.05;0.70;;;;;;;;;;4982446;28;20053;-85
2022/08/03 14:13:14;;;;;;;1.88;0.22;;;;;;;;;;4982277;28;20029;-86
2022/08/03 14:15:40;;;;;;;1.48;0.50;;;;;;;;;;4998568;28;20120;-86
2022/08/03 14:18:06;;;;;;;1.42;0.47;;;;;;;;;;5014850;28;20060;-86
2022/08/03 14:20:32;;;;;;;2.47;0.75;;;;;;;;;;4997955;28;20495;-86
2022/08/03 14:22:57;;;;;;;1.20;0.77;;;;;;;;;;4997968;28;20050;-87
2022/08/03 14:25:23;;;;;;;1.13;0.50;;;;;;;;;;4981323;28;20095;-87
2022/08/03 14:27:48;;;;;;;0.95;0.40;;;;;;;;;;4998364;28;20051;-86
2022/08/03 14:30:14;;;;;;;1.58;0.40;;;;;;;;;;4998620;28;20052;-86
2022/08/03 14:32:40;;;;;;;1.20;0.50;;;;;;;;;;4998155;28;20141;-86
2022/08/03 14:35:06;;;;;;;1.42;0.50;;;;;;;;;;4998052;28;20103;-86
2022/08/03 14:37:32;;;;;;;2.20;0.28;;;;;;;;;;4997821;28;20487;-86
2022/08/03 14:39:58;;;;;;;1.38;0.52;;;;;;;;;;4998430;28;20483;-86
2022/08/03 14:42:23;;;;;;;0.82;0.30;;;;;;;;;;4998581;28;20075;-86
2022/08/03 14:44:48;;;;;;;0.57;0.20;;;;;;;;;;4998051;28;20577;-86
2022/08/03 14:47:15;;;;;;;1.52;0.45;;;;;;;;;;5018995;28;20079;-86
2022/08/03 14:49:41;;;;;;;1.17;0.40;;;;;;;;;;5035247;28;20410;-85
2022/08/03 14:52:06;;;;;;;0.95;0.32;;;;;;;;;;5001369;28;20029;-86
2022/08/03 14:54:32;;;;;;;1.10;0.40;;;;;;;;;;5001187;28;20033;-85